AGROMETEOROLOŠKI PORTAL

Vinorodna pokrajina

Temelj dobrega kmetovanja.

Pregled podatkov za lokacijo Marezeige - Koper (ZRS), meteorološka postaja 515455

Pregled senzorjev na lokaciji

ID Ime Zadnja
vrednost
Datum in čas
meritve
(lokalni čas)
Tip
senzorja
7186 Sončno sevanje (W/m2) 0 W/m2 1.3.2024 06:00 Pyranometer SP-Lite
7182 Omočenost lista (1,5 m) (U) 10 U 1.3.2024 06:00 A730WET
7183 Padavine (mm) 0 mm 1.3.2024 06:00 Generic 0.2 mm
7185 Relativna zračna vlaga (2 m) (%RH) 92 %RH 1.3.2024 06:00 Generic 0 - 100 %
7184 Temperatura (2 m) (°C) 9,4 °C 1.3.2024 06:00 Generic -40 - +60 °C
7181 Smer vetra (3 m) (°) 143 ° 1.3.2024 06:00 Generic 0 - 360
7180 Hitrost vetra (3 m) (km/h) 2 km/h 1.3.2024 06:00 Generic 200 km/h

Pregled podatkov zadnjih 24 ur

Zap.
št.
Datum in čas
(lokalni čas)
Marezeige - Koper (ZRS)
Sončno
sevanje
Omočenost
lista
(1,5
m)
Padavine Relativna
zračna
vlaga
(2
m)
Temperatura
(2
m)
Smer
vetra
(3
m)
Hitrost
vetra
(3
m)
1 1.3.2024 06:00 0 10 0 91,6 9,4 142,9 1,6
2 1.3.2024 05:30 0 10 0,2 90,6 9,6 243,1 1,7
3 1.3.2024 05:00 0 10 0,6 88 10 226,3 2,2
4 1.3.2024 04:30 0 10 0 85,1 10,4 202,4 1,2
5 1.3.2024 04:00 0 10 0,2 79,9 11 88,7 4,9
6 1.3.2024 03:30 0 10 0 78,9 11,2 80,2 7,4
7 1.3.2024 03:00 0 10 0 76,3 11,5 95,4 7,7
8 1.3.2024 02:30 0 10 0 72,5 12 79,3 5,7
9 1.3.2024 02:00 0 10 0 73,1 11,9 65,8 5,4
10 1.3.2024 01:30 0 10 0 80,1 11 78,5 3,6
11 1.3.2024 01:00 0 10 0 79,8 11,1 92,5 2,7
12 1.3.2024 00:30 0 10 0 69,6 12,4 230,9 2,8
13 1.3.2024 00:00 0 3 0 60,8 13,5 61,8 5,6
14 29.2.2024 23:30 0 0 0 62,1 13,2 93,7 4,8
15 29.2.2024 23:00 0 0 0 60,6 13,6 71,1 4,7
16 29.2.2024 22:30 0 0 0 60,4 13,6 48,9 5,5
17 29.2.2024 22:00 0 0 0 60,4 13,6 125,7 5,1
18 29.2.2024 21:30 0 0 0 60,4 13,5 173,2 2,8
19 29.2.2024 21:00 0 0 0 59,4 13,8 93,8 3,2
20 29.2.2024 20:30 0 1 0 58,7 14,1 89,8 4,5
21 29.2.2024 20:00 0 0 0 58,8 14,2 91,9 4,4
22 29.2.2024 19:30 0 0 0 57,3 14,7 96,5 6,9
23 29.2.2024 19:00 0 0 0 57,8 14,8 86,3 7,6
24 29.2.2024 18:30 0 0 0 57,9 14,9 99,3 7,1
25 29.2.2024 18:00 6,3 0 0 57,2 15,2 102,3 6,7
26 29.2.2024 17:30 42,1 0 0 55,5 16 82,5 6,3
27 29.2.2024 17:00 111,8 0 0 54,2 16,8 66,7 5,6
28 29.2.2024 16:30 184,8 0 0 55,3 16,9 81,9 4,6
29 29.2.2024 16:00 189,9 0 0 57,2 16,5 58,1 5,2
30 29.2.2024 15:30 155,2 0 0 57,9 16,3 42,6 5,6
31 29.2.2024 15:00 192,6 0 0 57,2 16,4 58,2 6,9
32 29.2.2024 14:30 280,4 0 0 58,4 16,6 78,6 7,5
33 29.2.2024 14:00 294,1 4 0 63,4 16,1 244,8 3,8
34 29.2.2024 13:30 253,7 0 0 63,2 15,8 226,7 3,2
35 29.2.2024 13:00 208,4 9 0 64,3 15,5 203,4 2,9
36 29.2.2024 12:30 179,3 10 0 62,2 15,4 69,1 4,5
37 29.2.2024 12:00 146,5 6 0 55,6 16,1 74,6 7,9
38 29.2.2024 11:30 243,7 0 0 53,2 16,4 78,6 6,4
39 29.2.2024 11:00 230,4 0 0 55,9 15,8 65,4 7
40 29.2.2024 10:30 274,4 0 0 59,4 14,8 127,7 6
41 29.2.2024 10:00 143,5 2 0 61,4 14 100,4 4,9
42 29.2.2024 09:30 91,7 0 0 62,8 13,4 83,2 3,9
43 29.2.2024 09:00 72,6 0 0 61,2 13,5 64,1 5,8
44 29.2.2024 08:30 51,4 2 0 59 13,8 66,5 5,9
45 29.2.2024 08:00 34,5 0 0 55,9 14 98,6 6,5
46 29.2.2024 07:30 13 0 0 55,9 13,9 116,3 7
47 29.2.2024 07:00 2,1 0 0 53,6 14,2 105,9 8,9
48 29.2.2024 06:30 0 0 0 51,7 14,5 108,6 8,7